Baudette International Airport


Codes: KBDE/BDE
Name: Baudette International Airport
City: Baudette
Country: United States
Elevation: 1086 ft.
Wikipedia:

Photos at Baudette International Airport


   Photos courtesy of SpottingLog. You can add your own sightings and photos by signing up for a free trial today.



No photos found.

Weather at Baudette International Airport


Time (UTC)DescriptionTempratureWindCloud coverageVisibilityPressureHumidity
23-May-2024 21:00Clear Sky16°C7 mph, NE0%10000m1013hPa41%
24-May-2024 00:00Scattered Clouds15°C7 mph, NE25%10000m1012hPa45%
24-May-2024 03:00Broken Clouds12°C4 mph, E67%10000m1012hPa57%
24-May-2024 06:00Moderate Rain6°C13 mph, E100%6266m1011hPa96%
24-May-2024 09:00Moderate Rain6°C13 mph, E100%10000m1008hPa95%
24-May-2024 12:00Light Rain6°C16 mph, E100%10000m1006hPa91%
24-May-2024 15:00Overcast Clouds11°C18 mph, E100%10000m1001hPa73%
24-May-2024 18:00Moderate Rain10°C18 mph, SE100%10000m998hPa95%
24-May-2024 21:00Light Rain10°C7 mph, SE100%10000m997hPa98%
25-May-2024 00:00Light Rain11°C4 mph, SE100%10000m996hPa97%
25-May-2024 03:00Light Rain3°C11 mph, SW100%10000m1001hPa96%
25-May-2024 06:00Overcast Clouds3°C13 mph, SW100%10000m1003hPa89%
25-May-2024 09:00Overcast Clouds3°C11 mph, SW100%10000m1004hPa86%
25-May-2024 12:00Broken Clouds3°C9 mph, SW84%10000m1006hPa85%
25-May-2024 15:00Few Clouds10°C13 mph, SW13%10000m1005hPa53%
25-May-2024 18:00Few Clouds15°C13 mph, SW11%10000m1005hPa44%
25-May-2024 21:00Few Clouds17°C11 mph, SW22%10000m1004hPa49%
26-May-2024 00:00Scattered Clouds15°C4 mph, SW41%10000m1005hPa67%
26-May-2024 03:00Overcast Clouds9°C4 mph, N99%10000m1008hPa83%
26-May-2024 06:00Broken Clouds7°C4 mph, E78%10000m1008hPa84%
26-May-2024 09:00Broken Clouds9°C4 mph, E82%10000m1007hPa85%
26-May-2024 12:00Overcast Clouds10°C4 mph, E89%10000m1008hPa89%
26-May-2024 15:00Light Rain11°C4 mph, E100%10000m1007hPa95%
26-May-2024 18:00Light Rain16°C7 mph, NE100%10000m1006hPa83%
26-May-2024 21:00Light Rain17°C7 mph, N100%10000m1005hPa79%
27-May-2024 00:00Light Rain16°C4 mph, N97%10000m1006hPa85%
27-May-2024 03:00Light Rain12°C2 mph, SW97%10000m1008hPa94%
27-May-2024 06:00Overcast Clouds11°C4 mph, NW97%10000m1009hPa96%
27-May-2024 09:00Broken Clouds8°C4 mph, N58%10000m1010hPa95%
27-May-2024 12:00Scattered Clouds8°C7 mph, NW49%10000m1012hPa93%
27-May-2024 15:00Scattered Clouds12°C11 mph, NW38%10000m1012hPa61%
27-May-2024 18:00Few Clouds15°C11 mph, NW19%10000m1011hPa47%
27-May-2024 21:00Few Clouds17°C11 mph, NW18%10000m1010hPa44%
28-May-2024 00:00Scattered Clouds15°C4 mph, NW38%10000m1009hPa56%
28-May-2024 03:00Moderate Rain9°C7 mph, N100%10000m1011hPa98%
28-May-2024 06:00Light Rain7°C7 mph, NW100%10000m1011hPa96%
28-May-2024 09:00Broken Clouds5°C9 mph, NW64%10000m1011hPa97%
28-May-2024 12:00Broken Clouds6°C9 mph, NW67%10000m1012hPa94%
28-May-2024 15:00Light Rain7°C11 mph, NW98%10000m1013hPa91%
28-May-2024 18:00Light Rain7°C11 mph, NW98%10000m1014hPa91%